sensor_id;sensor_type;location;lat;lon;timestamp;pressure;altitude;pressure_sealevel;temperature;humidity
24788;BME280;12883;52.662;5.196;2023-10-19T00:00:41;99117.91;;;10.78;100.00
24788;BME280;12883;52.662;5.196;2023-10-19T00:03:14;99123.72;;;10.75;100.00
24788;BME280;12883;52.662;5.196;2023-10-19T00:05:39;99102.28;;;10.76;100.00
24788;BME280;12883;52.662;5.196;2023-10-19T00:08:07;99102.00;;;10.78;100.00
24788;BME280;12883;52.662;5.196;2023-10-19T00:10:40;99100.97;;;10.79;100.00
24788;BME280;12883;52.662;5.196;2023-10-19T00:13:10;99077.91;;;10.79;100.00
24788;BME280;12883;52.662;5.196;2023-10-19T00:15:42;99091.72;;;10.81;100.00
24788;BME280;12883;52.662;5.196;2023-10-19T00:18:19;99041.25;;;10.60;100.00
24788;BME280;12883;52.662;5.196;2023-10-19T00:20:48;99069.78;;;10.86;100.00
24788;BME280;12883;52.662;5.196;2023-10-19T00:23:17;99048.38;;;10.76;100.00
24788;BME280;12883;52.662;5.196;2023-10-19T00:25:46;99056.00;;;10.89;100.00
24788;BME280;12883;52.662;5.196;2023-10-19T00:28:17;99050.72;;;10.89;100.00
24788;BME280;12883;52.662;5.196;2023-10-19T00:30:43;99043.28;;;10.91;100.00
24788;BME280;12883;52.662;5.196;2023-10-19T00:33:10;99056.84;;;10.89;100.00
24788;BME280;12883;52.662;5.196;2023-10-19T00:35:44;99045.91;;;10.86;100.00
24788;BME280;12883;52.662;5.196;2023-10-19T00:38:13;99039.28;;;10.88;100.00
24788;BME280;12883;52.662;5.196;2023-10-19T00:41:09;98992.88;;;10.69;100.00
24788;BME280;12883;52.662;5.196;2023-10-19T00:43:35;99018.38;;;10.92;100.00
24788;BME280;12883;52.662;5.196;2023-10-19T00:46:14;99013.63;;;10.94;100.00
24788;BME280;12883;52.662;5.196;2023-10-19T00:48:56;99006.72;;;10.93;100.00
24788;BME280;12883;52.662;5.196;2023-10-19T00:51:51;98971.53;;;10.81;100.00
24788;BME280;12883;52.662;5.196;2023-10-19T00:54:20;98998.81;;;10.98;100.00
24788;BME280;12883;52.662;5.196;2023-10-19T00:56:59;98948.09;;;10.73;100.00
24788;BME280;12883;52.662;5.196;2023-10-19T00:59:39;98981.59;;;11.00;100.00
24788;BME280;12883;52.662;5.196;2023-10-19T01:02:17;98989.31;;;11.02;100.00
24788;BME280;12883;52.662;5.196;2023-10-19T01:04:46;98981.91;;;11.04;100.00
24788;BME280;12883;52.662;5.196;2023-10-19T01:07:19;98963.31;;;11.04;100.00
24788;BME280;12883;52.662;5.196;2023-10-19T01:09:49;98968.41;;;11.05;100.00
24788;BME280;12883;52.662;5.196;2023-10-19T01:12:19;98959.16;;;11.08;100.00
24788;BME280;12883;52.662;5.196;2023-10-19T01:15:09;98970.31;;;11.10;100.00
24788;BME280;12883;52.662;5.196;2023-10-19T01:17:40;98964.25;;;11.14;100.00
24788;BME280;12883;52.662;5.196;2023-10-19T01:20:10;98953.63;;;11.14;100.00
24788;BME280;12883;52.662;5.196;2023-10-19T01:23:02;98960.31;;;11.17;100.00
24788;BME280;12883;52.662;5.196;2023-10-19T01:25:50;98951.28;;;11.18;100.00
24788;BME280;12883;52.662;5.196;2023-10-19T01:28:20;98949.69;;;11.17;100.00
24788;BME280;12883;52.662;5.196;2023-10-19T01:30:47;98935.50;;;11.06;100.00
24788;BME280;12883;52.662;5.196;2023-10-19T01:33:17;98942.31;;;11.24;100.00
24788;BME280;12883;52.662;5.196;2023-10-19T01:35:44;98946.03;;;11.23;100.00
24788;BME280;12883;52.662;5.196;2023-10-19T01:38:29;98937.25;;;11.22;100.00
24788;BME280;12883;52.662;5.196;2023-10-19T01:41:02;98930.66;;;11.25;100.00
24788;BME280;12883;52.662;5.196;2023-10-19T01:43:31;98911.16;;;11.14;100.00
24788;BME280;12883;52.662;5.196;2023-10-19T01:46:00;98922.22;;;11.28;100.00
24788;BME280;12883;52.662;5.196;2023-10-19T01:48:30;98907.88;;;11.29;100.00
24788;BME280;12883;52.662;5.196;2023-10-19T01:51:03;98912.66;;;11.27;100.00
24788;BME280;12883;52.662;5.196;2023-10-19T01:53:32;98910.53;;;11.29;100.00
24788;BME280;12883;52.662;5.196;2023-10-19T01:55:59;98904.97;;;11.30;100.00
24788;BME280;12883;52.662;5.196;2023-10-19T01:58:25;98899.41;;;11.32;100.00
24788;BME280;12883;52.662;5.196;2023-10-19T02:00:51;98879.97;;;11.26;100.00
24788;BME280;12883;52.662;5.196;2023-10-19T02:03:21;98887.22;;;11.36;100.00
24788;BME280;12883;52.662;5.196;2023-10-19T02:05:48;98885.94;;;11.38;100.00
24788;BME280;12883;52.662;5.196;2023-10-19T02:08:16;98883.00;;;11.40;100.00
24788;BME280;12883;52.662;5.196;2023-10-19T02:10:46;98878.25;;;11.42;100.00
24788;BME280;12883;52.662;5.196;2023-10-19T02:13:12;98872.44;;;11.45;100.00
24788;BME280;12883;52.662;5.196;2023-10-19T02:15:42;98861.88;;;11.50;100.00
24788;BME280;12883;52.662;5.196;2023-10-19T02:18:07;98879.91;;;11.48;100.00
24788;BME280;12883;52.662;5.196;2023-10-19T02:20:34;98862.94;;;11.54;100.00
24788;BME280;12883;52.662;5.196;2023-10-19T02:22:59;98824.91;;;11.17;100.00
24788;BME280;12883;52.662;5.196;2023-10-19T02:25:28;98877.91;;;11.60;100.00
24788;BME280;12883;52.662;5.196;2023-10-19T02:27:56;98870.50;;;11.62;100.00
24788;BME280;12883;52.662;5.196;2023-10-19T02:30:21;98861.25;;;11.69;100.00
24788;BME280;12883;52.662;5.196;2023-10-19T02:32:46;98850.63;;;11.69;100.00
24788;BME280;12883;52.662;5.196;2023-10-19T02:35:13;98850.63;;;11.69;100.00
24788;BME280;12883;52.662;5.196;2023-10-19T02:37:40;98844.00;;;11.72;100.00
24788;BME280;12883;52.662;5.196;2023-10-19T02:40:05;98843.78;;;11.78;100.00
24788;BME280;12883;52.662;5.196;2023-10-19T02:42:48;98803.03;;;11.63;100.00
24788;BME280;12883;52.662;5.196;2023-10-19T02:45:16;98830.53;;;11.83;100.00
24788;BME280;12883;52.662;5.196;2023-10-19T02:47:45;98823.09;;;11.85;100.00
24788;BME280;12883;52.662;5.196;2023-10-19T02:50:11;98822.84;;;11.87;100.00
24788;BME280;12883;52.662;5.196;2023-10-19T02:52:41;98821.34;;;11.96;100.00
24788;BME280;12883;52.662;5.196;2023-10-19T02:55:07;98808.59;;;11.98;100.00
24788;BME280;12883;52.662;5.196;2023-10-19T02:57:33;98810.22;;;12.04;100.00
24788;BME280;12883;52.662;5.196;2023-10-19T02:59:58;98810.50;;;12.07;100.00
24788;BME280;12883;52.662;5.196;2023-10-19T03:02:24;98809.19;;;12.10;100.00
24788;BME280;12883;52.662;5.196;2023-10-19T03:04:53;98795.91;;;12.15;100.00
24788;BME280;12883;52.662;5.196;2023-10-19T03:07:18;98783.69;;;12.14;100.00
24788;BME280;12883;52.662;5.196;2023-10-19T03:09:44;98766.41;;;12.16;100.00
24788;BME280;12883;52.662;5.196;2023-10-19T03:12:19;98765.63;;;12.21;100.00
24788;BME280;12883;52.662;5.196;2023-10-19T03:14:45;98758.19;;;12.23;100.00
24788;BME280;12883;52.662;5.196;2023-10-19T03:17:14;98757.44;;;12.27;100.00
24788;BME280;12883;52.662;5.196;2023-10-19T03:19:39;98753.41;;;12.30;100.00
24788;BME280;12883;52.662;5.196;2023-10-19T03:22:05;98736.66;;;12.24;100.00
24788;BME280;12883;52.662;5.196;2023-10-19T03:24:31;98751.59;;;12.40;100.00
24788;BME280;12883;52.662;5.196;2023-10-19T03:27:10;98742.03;;;12.44;100.00
24788;BME280;12883;52.662;5.196;2023-10-19T03:29:43;98731.69;;;12.48;100.00
24788;BME280;12883;52.662;5.196;2023-10-19T03:32:11;98732.22;;;12.55;100.00
24788;BME280;12883;52.662;5.196;2023-10-19T03:34:37;98731.97;;;12.61;100.00
24788;BME280;12883;52.662;5.196;2023-10-19T03:37:03;98709.09;;;12.50;100.00
24788;BME280;12883;52.662;5.196;2023-10-19T03:39:34;98727.72;;;12.65;100.00
24788;BME280;12883;52.662;5.196;2023-10-19T03:42:03;98720.56;;;12.66;100.00
24788;BME280;12883;52.662;5.196;2023-10-19T03:44:31;98719.75;;;12.75;100.00
24788;BME280;12883;52.662;5.196;2023-10-19T03:47:09;98701.41;;;12.69;100.00
24788;BME280;12883;52.662;5.196;2023-10-19T03:49:38;98711.25;;;12.78;100.00
24788;BME280;12883;52.662;5.196;2023-10-19T03:52:05;98710.19;;;12.84;100.00
24788;BME280;12883;52.662;5.196;2023-10-19T03:54:34;98701.41;;;12.89;100.00
24788;BME280;12883;52.662;5.196;2023-10-19T03:57:04;98694.25;;;12.89;100.00
24788;BME280;12883;52.662;5.196;2023-10-19T03:59:32;98700.91;;;12.97;100.00
24788;BME280;12883;52.662;5.196;2023-10-19T04:02:00;98705.72;;;13.05;100.00
24788;BME280;12883;52.662;5.196;2023-10-19T04:04:32;98701.19;;;13.05;100.00
24788;BME280;12883;52.662;5.196;2023-10-19T04:06:58;98690.00;;;13.08;100.00
24788;BME280;12883;52.662;5.196;2023-10-19T04:09:24;98702.53;;;13.08;100.00
24788;BME280;12883;52.662;5.196;2023-10-19T04:11:55;98697.72;;;13.10;100.00
24788;BME280;12883;52.662;5.196;2023-10-19T04:14:21;98686.25;;;13.14;100.00
24788;BME280;12883;52.662;5.196;2023-10-19T04:16:46;98670.84;;;13.06;100.00
24788;BME280;12883;52.662;5.196;2023-10-19T04:19:14;98684.94;;;13.22;100.00
24788;BME280;12883;52.662;5.196;2023-10-19T04:21:41;98677.47;;;13.19;100.00
24788;BME280;12883;52.662;5.196;2023-10-19T04:24:09;98680.41;;;13.22;100.00
24788;BME280;12883;52.662;5.196;2023-10-19T04:26:36;98631.44;;;12.98;100.00
24788;BME280;12883;52.662;5.196;2023-10-19T04:29:06;98673.22;;;13.28;100.00
24788;BME280;12883;52.662;5.196;2023-10-19T04:31:43;98671.59;;;13.27;100.00
24788;BME280;12883;52.662;5.196;2023-10-19T04:34:21;98673.75;;;13.30;100.00
24788;BME280;12883;52.662;5.196;2023-10-19T04:36:48;98669.50;;;13.29;100.00
24788;BME280;12883;52.662;5.196;2023-10-19T04:39:13;98673.22;;;13.28;100.00
24788;BME280;12883;52.662;5.196;2023-10-19T04:41:41;98675.59;;;13.29;100.00
24788;BME280;12883;52.662;5.196;2023-10-19T04:44:07;98668.94;;;13.27;100.00
24788;BME280;12883;52.662;5.196;2023-10-19T04:46:35;98673.22;;;13.28;100.00
24788;BME280;12883;52.662;5.196;2023-10-19T04:49:01;98675.59;;;13.29;100.00
24788;BME280;12883;52.662;5.196;2023-10-19T04:51:28;98674.25;;;13.32;100.00
24788;BME280;12883;52.662;5.196;2023-10-19T04:53:54;98664.16;;;13.19;100.00
24788;BME280;12883;52.662;5.196;2023-10-19T04:56:20;98670.28;;;13.09;100.00
24788;BME280;12883;52.662;5.196;2023-10-19T04:58:45;98679.88;;;13.25;100.00
24788;BME280;12883;52.662;5.196;2023-10-19T05:01:12;98671.63;;;13.22;100.00
24788;BME280;12883;52.662;5.196;2023-10-19T05:03:38;98679.63;;;13.22;100.00
24788;BME280;12883;52.662;5.196;2023-10-19T05:06:03;98684.13;;;13.21;100.00
24788;BME280;12883;52.662;5.196;2023-10-19T05:08:29;98690.28;;;13.22;100.00
24788;BME280;12883;52.662;5.196;2023-10-19T05:10:55;98682.25;;;13.27;100.00
24788;BME280;12883;52.662;5.196;2023-10-19T05:13:25;98683.88;;;13.28;100.00
24788;BME280;12883;52.662;5.196;2023-10-19T05:15:54;98688.91;;;13.34;100.00
24788;BME280;12883;52.662;5.196;2023-10-19T05:18:20;98678.78;;;13.36;100.00
24788;BME280;12883;52.662;5.196;2023-10-19T05:20:46;98656.16;;;13.24;100.00
24788;BME280;12883;52.662;5.196;2023-10-19T05:23:12;98682.50;;;13.40;100.00
24788;BME280;12883;52.662;5.196;2023-10-19T05:25:38;98679.31;;;13.43;100.00
24788;BME280;12883;52.662;5.196;2023-10-19T05:28:05;98681.44;;;13.36;100.00
24788;BME280;12883;52.662;5.196;2023-10-19T05:30:31;98684.09;;;13.46;100.00
24788;BME280;12883;52.662;5.196;2023-10-19T05:32:57;98681.44;;;13.46;100.00
24788;BME280;12883;52.662;5.196;2023-10-19T05:35:25;98685.44;;;13.49;100.00
24788;BME280;12883;52.662;5.196;2023-10-19T05:37:52;98687.00;;;13.55;100.00
24788;BME280;12883;52.662;5.196;2023-10-19T05:40:17;98684.88;;;13.52;100.00
24788;BME280;12883;52.662;5.196;2023-10-19T05:42:44;98683.28;;;13.56;100.00
24788;BME280;12883;52.662;5.196;2023-10-19T05:45:11;98680.63;;;13.56;100.00
24788;BME280;12883;52.662;5.196;2023-10-19T05:47:38;98675.28;;;13.56;100.00
24788;BME280;12883;52.662;5.196;2023-10-19T05:50:04;98676.31;;;13.65;100.00
24788;BME280;12883;52.662;5.196;2023-10-19T05:52:29;98679.81;;;13.65;100.00
24788;BME280;12883;52.662;5.196;2023-10-19T05:54:55;98689.09;;;13.68;100.00
24788;BME280;12883;52.662;5.196;2023-10-19T05:57:20;98683.78;;;13.68;100.00
24788;BME280;12883;52.662;5.196;2023-10-19T05:59:47;98688.06;;;13.69;100.00
24788;BME280;12883;52.662;5.196;2023-10-19T06:02:13;98674.69;;;13.74;100.00
24788;BME280;12883;52.662;5.196;2023-10-19T06:04:38;98678.16;;;13.74;100.00
24788;BME280;12883;52.662;5.196;2023-10-19T06:07:03;98690.72;;;13.69;100.00
24788;BME280;12883;52.662;5.196;2023-10-19T06:09:29;98681.09;;;13.73;100.00
24788;BME280;12883;52.662;5.196;2023-10-19T06:11:57;98682.69;;;13.74;100.00
24788;BME280;12883;52.662;5.196;2023-10-19T06:14:22;98697.09;;;13.78;100.00
24788;BME280;12883;52.662;5.196;2023-10-19T06:16:48;98694.44;;;13.73;100.00
24788;BME280;12883;52.662;5.196;2023-10-19T06:19:13;98698.66;;;13.84;100.00
24788;BME280;12883;52.662;5.196;2023-10-19T06:21:38;98691.75;;;13.83;100.00
24788;BME280;12883;52.662;5.196;2023-10-19T06:24:05;98688.00;;;13.84;100.00
24788;BME280;12883;52.662;5.196;2023-10-19T06:26:31;98702.94;;;13.85;100.00
24788;BME280;12883;52.662;5.196;2023-10-19T06:28:56;98670.69;;;13.71;100.00
24788;BME280;12883;52.662;5.196;2023-10-19T06:31:24;98691.19;;;13.91;100.00
24788;BME280;12883;52.662;5.196;2023-10-19T06:33:51;98706.88;;;13.92;100.00
24788;BME280;12883;52.662;5.196;2023-10-19T06:36:16;98667.50;;;13.74;100.00
24788;BME280;12883;52.662;5.196;2023-10-19T06:38:42;98699.44;;;13.94;100.00
24788;BME280;12883;52.662;5.196;2023-10-19T06:41:14;98666.44;;;13.80;100.00
24788;BME280;12883;52.662;5.196;2023-10-19T06:43:40;98695.13;;;13.98;100.00
24788;BME280;12883;52.662;5.196;2023-10-19T06:46:05;98678.94;;;13.85;100.00
24788;BME280;12883;52.662;5.196;2023-10-19T06:48:31;98695.44;;;13.97;100.00
24788;BME280;12883;52.662;5.196;2023-10-19T06:50:57;98692.22;;;14.00;100.00
24788;BME280;12883;52.662;5.196;2023-10-19T06:53:22;98705.03;;;13.98;100.00
24788;BME280;12883;52.662;5.196;2023-10-19T06:55:48;98702.88;;;13.95;100.00
24788;BME280;12883;52.662;5.196;2023-10-19T06:58:13;98717.28;;;13.99;100.00
24788;BME280;12883;52.662;5.196;2023-10-19T07:00:45;98703.44;;;13.92;100.00
24788;BME280;12883;52.662;5.196;2023-10-19T07:03:10;98688.00;;;13.84;100.00
24788;BME280;12883;52.662;5.196;2023-10-19T07:05:36;98710.31;;;14.03;100.00
24788;BME280;12883;52.662;5.196;2023-10-19T07:08:02;98712.72;;;13.99;100.00
24788;BME280;12883;52.662;5.196;2023-10-19T07:10:28;98733.78;;;14.01;100.00
24788;BME280;12883;52.662;5.196;2023-10-19T07:12:55;98735.69;;;14.00;100.00
24788;BME280;12883;52.662;5.196;2023-10-19T07:15:22;98736.47;;;14.01;100.00
24788;BME280;12883;52.662;5.196;2023-10-19T07:17:49;98735.38;;;14.02;100.00
24788;BME280;12883;52.662;5.196;2023-10-19T07:20:17;98732.97;;;14.05;100.00
24788;BME280;12883;52.662;5.196;2023-10-19T07:22:58;98742.56;;;14.06;100.00
24788;BME280;12883;52.662;5.196;2023-10-19T07:25:43;98741.53;;;14.07;100.00
24788;BME280;12883;52.662;5.196;2023-10-19T07:28:10;98741.78;;;14.11;100.00
24788;BME280;12883;52.662;5.196;2023-10-19T07:30:35;98743.38;;;14.12;100.00
24788;BME280;12883;52.662;5.196;2023-10-19T07:33:02;98744.97;;;14.13;100.00
24788;BME280;12883;52.662;5.196;2023-10-19T07:35:34;98751.91;;;14.14;100.00
24788;BME280;12883;52.662;5.196;2023-10-19T07:38:00;98766.81;;;14.15;100.00
24788;BME280;12883;52.662;5.196;2023-10-19T07:40:26;98725.56;;;13.92;100.00
24788;BME280;12883;52.662;5.196;2023-10-19T07:42:53;98750.28;;;14.18;100.00
24788;BME280;12883;52.662;5.196;2023-10-19T07:45:20;98744.69;;;14.19;100.00
24788;BME280;12883;52.662;5.196;2023-10-19T07:47:45;98738.03;;;14.12;100.00
24788;BME280;12883;52.662;5.196;2023-10-19T07:50:12;98745.25;;;14.21;100.00
24788;BME280;12883;52.662;5.196;2023-10-19T07:52:44;98750.81;;;14.25;100.00
24788;BME280;12883;52.662;5.196;2023-10-19T07:55:11;98752.97;;;14.18;100.00
24788;BME280;12883;52.662;5.196;2023-10-19T07:57:37;98752.69;;;14.24;100.00
24788;BME280;12883;52.662;5.196;2023-10-19T08:00:04;98755.34;;;14.19;100.00
24788;BME280;12883;52.662;5.196;2023-10-19T08:02:30;98770.28;;;14.25;100.00
24788;BME280;12883;52.662;5.196;2023-10-19T08:04:56;98766.53;;;14.26;100.00
24788;BME280;12883;52.662;5.196;2023-10-19T08:07:22;98773.72;;;14.31;100.00
24788;BME280;12883;52.662;5.196;2023-10-19T08:09:47;98772.69;;;14.32;100.00
24788;BME280;12883;52.662;5.196;2023-10-19T08:12:13;98773.50;;;14.22;100.00
24788;BME280;12883;52.662;5.196;2023-10-19T08:14:39;98766.78;;;14.35;100.00
24788;BME280;12883;52.662;5.196;2023-10-19T08:17:05;98746.53;;;14.24;100.00
24788;BME280;12883;52.662;5.196;2023-10-19T08:19:31;98776.63;;;14.39;100.00
24788;BME280;12883;52.662;5.196;2023-10-19T08:21:56;98771.03;;;14.41;100.00
24788;BME280;12883;52.662;5.196;2023-10-19T08:24:22;98775.81;;;14.44;100.00
24788;BME280;12883;52.662;5.196;2023-10-19T08:26:48;98766.19;;;14.48;100.00
24788;BME280;12883;52.662;5.196;2023-10-19T08:29:16;98779.53;;;14.48;100.00
24788;BME280;12883;52.662;5.196;2023-10-19T08:31:42;98782.97;;;14.53;100.00
24788;BME280;12883;52.662;5.196;2023-10-19T08:34:10;98776.81;;;14.58;100.00
24788;BME280;12883;52.662;5.196;2023-10-19T08:36:36;98762.50;;;14.39;100.00
24788;BME280;12883;52.662;5.196;2023-10-19T08:39:06;98780.56;;;14.57;100.00
24788;BME280;12883;52.662;5.196;2023-10-19T08:41:35;98776.00;;;14.62;100.00
24788;BME280;12883;52.662;5.196;2023-10-19T08:44:03;98776.78;;;14.63;100.00
24788;BME280;12883;52.662;5.196;2023-10-19T08:46:29;98776.28;;;14.61;100.00
24788;BME280;12883;52.662;5.196;2023-10-19T08:48:57;98777.88;;;14.62;100.00
24788;BME280;12883;52.662;5.196;2023-10-19T08:51:22;98773.88;;;14.59;100.00
24788;BME280;12883;52.662;5.196;2023-10-19T08:53:53;98786.19;;;14.55;100.00
24788;BME280;12883;52.662;5.196;2023-10-19T08:56:19;98772.28;;;14.53;100.00
24788;BME280;12883;52.662;5.196;2023-10-19T08:58:45;98772.28;;;14.53;100.00
24788;BME280;12883;52.662;5.196;2023-10-19T09:01:11;98777.38;;;14.55;100.00
24788;BME280;12883;52.662;5.196;2023-10-19T09:03:37;98762.47;;;14.44;100.00
24788;BME280;12883;52.662;5.196;2023-10-19T09:06:04;98776.53;;;14.59;100.00
24788;BME280;12883;52.662;5.196;2023-10-19T09:08:31;98780.53;;;14.62;100.00
24788;BME280;12883;52.662;5.196;2023-10-19T09:11:08;98786.69;;;14.62;100.00
24788;BME280;12883;52.662;5.196;2023-10-19T09:13:51;98745.34;;;14.50;100.00
24788;BME280;12883;52.662;5.196;2023-10-19T09:16:21;98776.75;;;14.73;100.00
24788;BME280;12883;52.662;5.196;2023-10-19T09:18:48;98770.34;;;14.74;100.00
24788;BME280;12883;52.662;5.196;2023-10-19T09:21:18;98770.09;;;14.70;100.00
24788;BME280;12883;52.662;5.196;2023-10-19T09:23:51;98749.34;;;14.57;100.00
24788;BME280;12883;52.662;5.196;2023-10-19T09:26:17;98757.50;;;14.76;100.00
24788;BME280;12883;52.662;5.196;2023-10-19T09:28:46;98747.91;;;14.75;100.00
24788;BME280;12883;52.662;5.196;2023-10-19T09:31:14;98718.38;;;14.56;100.00
24788;BME280;12883;52.662;5.196;2023-10-19T09:33:42;98737.19;;;14.80;100.00
24788;BME280;12883;52.662;5.196;2023-10-19T09:36:10;98745.16;;;14.84;100.00
24788;BME280;12883;52.662;5.196;2023-10-19T09:38:44;98706.34;;;14.59;100.00
24788;BME280;12883;52.662;5.196;2023-10-19T09:41:12;98750.72;;;14.93;100.00
24788;BME280;12883;52.662;5.196;2023-10-19T09:43:43;98711.88;;;14.67;100.00
24788;BME280;12883;52.662;5.196;2023-10-19T09:46:10;98733.97;;;14.82;100.00
24788;BME280;12883;52.662;5.196;2023-10-19T09:48:41;98740.53;;;14.95;100.00
24788;BME280;12883;52.662;5.196;2023-10-19T09:51:07;98724.34;;;14.82;100.00
24788;BME280;12883;52.662;5.196;2023-10-19T09:53:34;98740.75;;;15.03;100.00
24788;BME280;12883;52.662;5.196;2023-10-19T09:56:01;98741.16;;;15.20;100.00
24788;BME280;12883;52.662;5.196;2023-10-19T09:58:45;98737.59;;;15.35;100.00
24788;BME280;12883;52.662;5.196;2023-10-19T10:01:11;98744.69;;;15.49;100.00
24788;BME280;12883;52.662;5.196;2023-10-19T10:03:50;98742.41;;;15.61;100.00
24788;BME280;12883;52.662;5.196;2023-10-19T10:06:29;98717.97;;;15.49;100.00
24788;BME280;12883;52.662;5.196;2023-10-19T10:08:55;98708.28;;;15.53;100.00
24788;BME280;12883;52.662;5.196;2023-10-19T10:11:23;98724.63;;;15.75;100.00
24788;BME280;12883;52.662;5.196;2023-10-19T10:13:53;98693.03;;;15.54;100.00
24788;BME280;12883;52.662;5.196;2023-10-19T10:16:21;98748.88;;;15.84;100.00
24788;BME280;12883;52.662;5.196;2023-10-19T10:18:48;98739.50;;;15.86;100.00
24788;BME280;12883;52.662;5.196;2023-10-19T10:21:22;98748.69;;;15.75;100.00
24788;BME280;12883;52.662;5.196;2023-10-19T10:23:53;98757.56;;;15.71;100.00
24788;BME280;12883;52.662;5.196;2023-10-19T10:26:21;98756.78;;;15.70;100.00
24788;BME280;12883;52.662;5.196;2023-10-19T10:31:40;98755.44;;;15.73;100.00
24788;BME280;12883;52.662;5.196;2023-10-19T10:34:08;98757.56;;;15.71;100.00
24788;BME280;12883;52.662;5.196;2023-10-19T10:36:57;98758.38;;;15.71;100.00
24788;BME280;12883;52.662;5.196;2023-10-19T10:39:22;98760.81;;;15.68;100.00
24788;BME280;12883;52.662;5.196;2023-10-19T10:41:55;98746.41;;;15.64;100.00
24788;BME280;12883;52.662;5.196;2023-10-19T10:44:20;98765.66;;;15.66;100.00
24788;BME280;12883;52.662;5.196;2023-10-19T10:46:46;98764.59;;;15.67;100.00
24788;BME280;12883;52.662;5.196;2023-10-19T10:49:14;98758.69;;;15.65;100.00
24788;BME280;12883;52.662;5.196;2023-10-19T10:51:40;98758.38;;;15.71;100.00
24788;BME280;12883;52.662;5.196;2023-10-19T10:54:06;98745.63;;;15.63;100.00
24788;BME280;12883;52.662;5.196;2023-10-19T10:56:40;98748.69;;;15.75;100.00
24788;BME280;12883;52.662;5.196;2023-10-19T10:59:13;98747.91;;;15.75;100.00
24788;BME280;12883;52.662;5.196;2023-10-19T11:01:38;98762.66;;;15.72;100.00
24788;BME280;12883;52.662;5.196;2023-10-19T11:04:10;98753.88;;;15.67;100.00
24788;BME280;12883;52.662;5.196;2023-10-19T11:06:48;98751.69;;;15.74;100.00
24788;BME280;12883;52.662;5.196;2023-10-19T11:09:14;98756.78;;;15.70;100.00
24788;BME280;12883;52.662;5.196;2023-10-19T11:11:44;98760.78;;;15.73;100.00
24788;BME280;12883;52.662;5.196;2023-10-19T11:14:10;98762.13;;;15.70;100.00
24788;BME280;12883;52.662;5.196;2023-10-19T11:16:36;98766.13;;;15.73;100.00
24788;BME280;12883;52.662;5.196;2023-10-19T11:19:04;98720.06;;;15.52;100.00
24788;BME280;12883;52.662;5.196;2023-10-19T11:21:29;98728.53;;;15.59;100.00
24788;BME280;12883;52.662;5.196;2023-10-19T11:23:55;98738.22;;;15.79;100.00
24788;BME280;12883;52.662;5.196;2023-10-19T11:26:23;98735.50;;;15.84;100.00
24788;BME280;12883;52.662;5.196;2023-10-19T11:29:01;98741.09;;;15.87;100.00
24788;BME280;12883;52.662;5.196;2023-10-19T11:31:29;98745.88;;;15.90;100.00
24788;BME280;12883;52.662;5.196;2023-10-19T11:34:03;98722.59;;;15.91;100.00
24788;BME280;12883;52.662;5.196;2023-10-19T11:36:29;98722.31;;;15.92;100.00
24788;BME280;12883;52.662;5.196;2023-10-19T11:38:55;98682.41;;;15.72;100.00
24788;BME280;12883;52.662;5.196;2023-10-19T11:41:20;98722.81;;;15.94;100.00
24788;BME280;12883;52.662;5.196;2023-10-19T11:43:47;98721.97;;;15.99;100.00
24788;BME280;12883;52.662;5.196;2023-10-19T11:46:14;98709.91;;;16.01;100.00
24788;BME280;12883;52.662;5.196;2023-10-19T11:48:40;98716.34;;;16.00;100.00
24788;BME280;12883;52.662;5.196;2023-10-19T11:51:08;98721.09;;;16.03;100.00
24788;BME280;12883;52.662;5.196;2023-10-19T11:53:37;98724.81;;;16.07;100.00
24788;BME280;12883;52.662;5.196;2023-10-19T11:56:04;98710.94;;;16.05;100.00
24788;BME280;12883;52.662;5.196;2023-10-19T11:58:31;98728.56;;;16.06;100.00
24788;BME280;12883;52.662;5.196;2023-10-19T12:01:03;98710.34;;;16.08;100.00
24788;BME280;12883;52.662;5.196;2023-10-19T12:03:37;98716.16;;;16.15;100.00
24788;BME280;12883;52.662;5.196;2023-10-19T12:06:04;98715.28;;;16.20;100.00
24788;BME280;12883;52.662;5.196;2023-10-19T12:08:34;98704.75;;;16.28;100.00
24788;BME280;12883;52.662;5.196;2023-10-19T12:11:01;98711.13;;;16.32;100.00
24788;BME280;12883;52.662;5.196;2023-10-19T12:13:28;98697.66;;;16.19;100.00
24788;BME280;12883;52.662;5.196;2023-10-19T12:15:54;98700.38;;;16.37;100.00
24788;BME280;12883;52.662;5.196;2023-10-19T12:18:24;98704.66;;;16.38;100.00
24788;BME280;12883;52.662;5.196;2023-10-19T12:20:51;98705.16;;;16.40;100.00
24788;BME280;12883;52.662;5.196;2023-10-19T12:23:22;98689.19;;;16.30;100.00
24788;BME280;12883;52.662;5.196;2023-10-19T12:25:48;98694.63;;;16.25;100.00
24788;BME280;12883;52.662;5.196;2023-10-19T12:28:13;98661.75;;;16.01;100.00
24788;BME280;12883;52.662;5.196;2023-10-19T12:30:40;98710.09;;;16.28;100.00
24788;BME280;12883;52.662;5.196;2023-10-19T12:33:06;98706.94;;;16.26;100.00
24788;BME280;12883;52.662;5.196;2023-10-19T12:35:37;98694.25;;;16.32;100.00
24788;BME280;12883;52.662;5.196;2023-10-19T12:38:19;98691.31;;;16.33;100.00
24788;BME280;12883;52.662;5.196;2023-10-19T12:40:47;98688.34;;;16.35;100.00
24788;BME280;12883;52.662;5.196;2023-10-19T12:43:16;98693.38;;;16.41;100.00
24788;BME280;12883;52.662;5.196;2023-10-19T12:45:44;98692.50;;;16.46;100.00
24788;BME280;12883;52.662;5.196;2023-10-19T12:48:16;98700.69;;;16.54;100.00
24788;BME280;12883;52.662;5.196;2023-10-19T12:50:41;98693.97;;;16.57;100.00
24788;BME280;12883;52.662;5.196;2023-10-19T12:53:07;98700.63;;;16.59;100.00
24788;BME280;12883;52.662;5.196;2023-10-19T12:55:33;98701.13;;;16.61;100.00
24788;BME280;12883;52.662;5.196;2023-10-19T12:57:59;98696.06;;;16.60;100.00
24788;BME280;12883;52.662;5.196;2023-10-19T13:00:33;98640.56;;;16.23;100.00